Elsloo, Netherlands
Current Conditions -  °F | °C
As of 2:55 AM on Tuesday 25 Nov 2014 (Local Time) from EHBK Reporting Station
Clear Clear  
Wind Chill: 29°   Ceiling: Unl
Heat Index: 34°   Visibility: 6mi
Dew Point: 32°   Wind: 6mph
Humidity: 93%   Direction: 70°ENE
Pressure: 30.27"   Gusts: NA
Location:  50.95°N, 5.77°E
Report Text: EHBK 250155Z AUTO 07005KT 9000 NCD 01/00 Q1025
Loading
Personal Weather Stations






























Interactive Weather Map New forecast layout! Learn more

10-Day Weather Forecast

Advertisements
Track Severe Weather on mobile